createdAt,value
2022-12-26T00:00:08.723Z,11.00
2022-12-26T00:01:08.663Z,11.70
2022-12-26T00:02:08.632Z,11.60
2022-12-26T00:03:08.746Z,11.80
2022-12-26T00:04:49.788Z,10.90
2022-12-26T00:05:08.557Z,11.00
2022-12-26T00:06:08.543Z,12.30
2022-12-26T00:07:08.505Z,11.90
2022-12-26T00:08:08.476Z,10.70
2022-12-26T00:09:08.452Z,11.30
2022-12-26T00:10:08.437Z,11.20
2022-12-26T00:11:08.406Z,11.80
2022-12-26T00:12:08.376Z,11.50
2022-12-26T00:13:39.352Z,11.40
2022-12-26T00:14:08.321Z,11.00
2022-12-26T00:15:08.308Z,11.40
2022-12-26T00:16:08.402Z,11.30
2022-12-26T00:17:08.263Z,11.20
2022-12-26T00:18:08.239Z,11.60
2022-12-26T00:19:08.210Z,10.80
2022-12-26T00:20:08.203Z,11.30
2022-12-26T00:21:08.150Z,11.60
2022-12-26T00:22:08.138Z,11.50
2022-12-26T00:23:08.102Z,11.50
2022-12-26T00:24:08.073Z,11.10
2022-12-26T00:25:08.048Z,11.50
2022-12-26T00:26:08.019Z,10.60
2022-12-26T00:27:08.001Z,11.40
2022-12-26T00:28:08.033Z,10.30
2022-12-26T00:29:07.948Z,10.90
2022-12-26T00:30:07.922Z,10.80
2022-12-26T00:31:07.972Z,11.10
2022-12-26T00:32:07.873Z,10.90
2022-12-26T00:33:07.847Z,10.50
2022-12-26T00:34:07.822Z,10.80
2022-12-26T00:35:07.803Z,11.00
2022-12-26T00:36:07.771Z,10.40
2022-12-26T00:37:07.792Z,10.70
2022-12-26T00:38:07.764Z,10.70
2022-12-26T00:39:07.697Z,11.00
2022-12-26T00:40:07.690Z,11.20
2022-12-26T00:41:07.653Z,11.40
2022-12-26T00:42:07.620Z,10.60
2022-12-26T00:43:07.595Z,11.50
2022-12-26T00:44:07.569Z,11.00
2022-12-26T00:45:07.545Z,11.10
2022-12-26T00:46:07.524Z,10.50
2022-12-26T00:47:07.566Z,11.50
2022-12-26T00:48:07.470Z,10.90
2022-12-26T00:49:07.445Z,11.40
2022-12-26T00:50:12.877Z,11.10
2022-12-26T00:51:07.394Z,10.80
2022-12-26T00:52:07.368Z,10.70
2022-12-26T00:53:07.357Z,10.30
2022-12-26T00:54:07.340Z,10.90
2022-12-26T00:55:07.293Z,10.80
2022-12-26T00:56:07.266Z,10.70
2022-12-26T00:57:07.239Z,10.70
2022-12-26T00:58:07.216Z,10.80
2022-12-26T00:59:07.193Z,10.90
2022-12-26T01:00:07.188Z,10.90
2022-12-26T01:01:07.326Z,10.60
2022-12-26T01:02:07.368Z,10.60
2022-12-26T01:03:07.202Z,11.20
2022-12-26T01:04:07.069Z,11.50
2022-12-26T01:05:07.052Z,11.60
2022-12-26T01:06:07.011Z,11.70
2022-12-26T01:07:06.993Z,11.00
2022-12-26T01:08:21.492Z,11.30
2022-12-26T01:09:06.940Z,11.20
2022-12-26T01:10:06.936Z,11.40
2022-12-26T01:11:06.926Z,11.30
2022-12-26T01:12:06.864Z,11.30
2022-12-26T01:13:06.840Z,11.90
2022-12-26T01:14:06.811Z,11.60
2022-12-26T01:15:06.789Z,12.10
2022-12-26T01:16:06.800Z,11.30
2022-12-26T01:17:06.737Z,12.30
2022-12-26T01:18:06.716Z,11.50
2022-12-26T01:19:06.706Z,11.50
2022-12-26T01:20:06.666Z,11.50
2022-12-26T01:21:06.647Z,10.90
2022-12-26T01:22:06.610Z,12.00
2022-12-26T01:23:06.586Z,11.40
2022-12-26T01:24:06.567Z,11.50
2022-12-26T01:25:06.540Z,10.50
2022-12-26T01:26:16.741Z,10.80
2022-12-26T01:27:06.493Z,11.60
2022-12-26T01:28:06.463Z,11.80
2022-12-26T01:29:06.437Z,11.20
2022-12-26T01:30:06.430Z,11.00
2022-12-26T01:31:06.395Z,11.50
2022-12-26T01:32:06.489Z,11.30
2022-12-26T01:33:06.339Z,12.10
2022-12-26T01:34:06.315Z,12.00
2022-12-26T01:35:06.285Z,11.70
2022-12-26T01:36:06.269Z,11.30
2022-12-26T01:37:06.236Z,11.50
2022-12-26T01:38:06.218Z,12.00
2022-12-26T01:39:06.195Z,11.50
2022-12-26T01:40:06.171Z,11.70
2022-12-26T01:41:06.136Z,11.60
2022-12-26T01:42:06.158Z,12.30
2022-12-26T01:43:06.088Z,11.70
2022-12-26T01:44:06.070Z,11.70
2022-12-26T01:45:06.036Z,11.20
2022-12-26T01:46:06.059Z,12.20
2022-12-26T01:47:05.985Z,11.20
2022-12-26T01:48:05.961Z,11.30
2022-12-26T01:49:05.937Z,11.40
2022-12-26T01:50:05.910Z,11.90
2022-12-26T01:51:05.887Z,11.20
2022-12-26T01:52:05.874Z,11.60
2022-12-26T01:53:05.839Z,11.50
2022-12-26T01:54:41.083Z,12.00
2022-12-26T01:55:05.785Z,11.50
2022-12-26T01:56:05.759Z,12.20
2022-12-26T01:57:05.736Z,11.50
2022-12-26T01:58:05.731Z,12.60
2022-12-26T01:59:05.683Z,12.20
2022-12-26T02:00:05.669Z,12.40
2022-12-26T02:01:05.731Z,12.50
2022-12-26T02:02:05.910Z,12.00
2022-12-26T02:03:05.637Z,12.60
2022-12-26T02:04:05.564Z,12.70
2022-12-26T02:05:05.532Z,12.20
2022-12-26T02:06:05.507Z,11.80
2022-12-26T02:07:05.483Z,11.50
2022-12-26T02:08:05.457Z,12.60
2022-12-26T02:09:05.432Z,12.10
2022-12-26T02:10:05.404Z,11.90
2022-12-26T02:11:05.380Z,11.90
2022-12-26T02:12:35.622Z,12.40
2022-12-26T02:13:05.333Z,11.80
2022-12-26T02:14:05.324Z,12.40
2022-12-26T02:15:05.281Z,11.40
2022-12-26T02:16:05.319Z,12.60
2022-12-26T02:17:05.282Z,12.50
2022-12-26T02:18:05.237Z,12.50
2022-12-26T02:19:05.185Z,12.50
2022-12-26T02:20:05.153Z,12.10
2022-12-26T02:21:05.125Z,12.20
2022-12-26T02:22:05.102Z,12.10
2022-12-26T02:23:05.080Z,11.40
2022-12-26T02:24:05.048Z,11.90
2022-12-26T02:25:05.036Z,11.60
2022-12-26T02:26:04.996Z,11.30
2022-12-26T02:27:04.969Z,11.90
2022-12-26T02:28:04.955Z,11.40
2022-12-26T02:29:04.921Z,11.30
2022-12-26T02:30:04.916Z,10.70
2022-12-26T02:31:04.872Z,11.30
2022-12-26T02:32:04.912Z,11.50
2022-12-26T02:33:04.820Z,11.80
2022-12-26T02:34:04.793Z,11.80
2022-12-26T02:35:04.766Z,11.50
2022-12-26T02:36:04.744Z,11.20
2022-12-26T02:37:04.722Z,12.00
2022-12-26T02:38:04.700Z,11.90
2022-12-26T02:39:45.455Z,12.00
2022-12-26T02:40:04.776Z,11.20
2022-12-26T02:41:04.614Z,12.50
2022-12-26T02:42:04.588Z,11.90
2022-12-26T02:43:04.565Z,12.40
2022-12-26T02:44:04.561Z,11.60
2022-12-26T02:45:04.520Z,12.70
2022-12-26T02:46:04.594Z,12.60
2022-12-26T02:47:04.470Z,11.80
2022-12-26T02:48:04.434Z,12.20
2022-12-26T02:49:04.416Z,12.00
2022-12-26T02:50:04.410Z,12.00
2022-12-26T02:51:04.389Z,12.60
2022-12-26T02:52:04.349Z,12.70
2022-12-26T02:53:04.320Z,12.60
2022-12-26T02:54:04.284Z,12.00
2022-12-26T02:55:04.255Z,12.70
2022-12-26T02:56:04.234Z,12.30
2022-12-26T02:57:04.211Z,12.50
2022-12-26T02:58:04.183Z,12.90
2022-12-26T02:59:04.155Z,12.10
2022-12-26T03:00:04.130Z,12.40
2022-12-26T03:01:04.206Z,11.90
2022-12-26T03:02:04.376Z,12.20
2022-12-26T03:03:04.093Z,12.30
2022-12-26T03:04:04.034Z,13.50
2022-12-26T03:05:04.009Z,12.90
2022-12-26T03:06:03.995Z,12.90
2022-12-26T03:07:03.968Z,13.60
2022-12-26T03:08:03.928Z,13.90
2022-12-26T03:09:03.903Z,15.20
2022-12-26T03:10:03.883Z,13.40
2022-12-26T03:11:03.878Z,13.80
2022-12-26T03:12:03.829Z,13.00
2022-12-26T03:13:03.808Z,13.30
2022-12-26T03:14:03.780Z,13.80
2022-12-26T03:15:03.748Z,13.70
2022-12-26T03:16:03.732Z,13.70
2022-12-26T03:17:03.777Z,13.90
2022-12-26T03:18:03.695Z,13.60
2022-12-26T03:19:03.654Z,14.50
2022-12-26T03:20:03.624Z,13.60
2022-12-26T03:21:03.604Z,14.20
2022-12-26T03:22:03.574Z,13.70
2022-12-26T03:23:03.548Z,14.00
2022-12-26T03:24:03.525Z,14.10
2022-12-26T03:25:03.497Z,14.50
2022-12-26T03:26:03.483Z,14.10
2022-12-26T03:27:03.443Z,13.50
2022-12-26T03:28:03.418Z,14.40
2022-12-26T03:29:03.396Z,13.50
2022-12-26T03:30:03.393Z,13.30
2022-12-26T03:31:03.420Z,14.00
2022-12-26T03:32:03.323Z,13.60
2022-12-26T03:33:03.302Z,14.20
2022-12-26T03:34:03.299Z,12.70
2022-12-26T03:35:03.241Z,13.80
2022-12-26T03:36:03.233Z,13.60
2022-12-26T03:37:03.192Z,13.50
2022-12-26T03:38:03.168Z,13.30
2022-12-26T03:39:03.143Z,13.50
2022-12-26T03:40:03.118Z,13.90
2022-12-26T03:41:03.094Z,13.60
2022-12-26T03:42:03.063Z,14.40
2022-12-26T03:43:03.036Z,14.10
2022-12-26T03:44:03.011Z,14.10
2022-12-26T03:45:02.989Z,14.50
2022-12-26T03:46:02.992Z,14.20
2022-12-26T03:47:02.936Z,14.80
2022-12-26T03:48:02.920Z,14.30
2022-12-26T03:49:02.888Z,13.90
2022-12-26T03:50:02.877Z,14.50
2022-12-26T03:51:02.831Z,15.00
2022-12-26T03:52:02.812Z,15.40
2022-12-26T03:53:02.788Z,14.70
2022-12-26T03:54:02.758Z,13.70
2022-12-26T03:55:02.733Z,14.60
2022-12-26T03:56:02.738Z,15.10
2022-12-26T03:57:02.684Z,14.20
2022-12-26T03:58:02.655Z,13.30
2022-12-26T03:59:02.636Z,13.30
2022-12-26T04:00:02.755Z,14.50
2022-12-26T04:01:02.611Z,12.90
2022-12-26T04:02:02.642Z,13.20
2022-12-26T04:03:02.541Z,13.20
2022-12-26T04:04:02.613Z,12.70
2022-12-26T04:05:02.482Z,13.00
2022-12-26T04:06:02.484Z,13.00
2022-12-26T04:07:02.424Z,12.30
2022-12-26T04:08:02.427Z,12.70
2022-12-26T04:09:02.381Z,12.10
2022-12-26T04:10:02.348Z,11.40
2022-12-26T04:11:02.326Z,12.40
2022-12-26T04:12:02.309Z,12.30
2022-12-26T04:13:02.272Z,12.10
2022-12-26T04:14:02.251Z,12.40
2022-12-26T04:15:02.233Z,12.60
2022-12-26T04:16:02.374Z,12.00
2022-12-26T04:17:02.170Z,12.30
2022-12-26T04:18:02.156Z,12.40
2022-12-26T04:19:02.124Z,11.70
2022-12-26T04:20:02.100Z,12.10
2022-12-26T04:21:02.065Z,11.40
2022-12-26T04:22:02.066Z,12.40
2022-12-26T04:23:02.017Z,13.20
2022-12-26T04:24:01.996Z,12.40
2022-12-26T04:25:01.988Z,13.00
2022-12-26T04:26:01.965Z,12.70
2022-12-26T04:27:01.914Z,13.60
2022-12-26T04:28:01.895Z,14.10
2022-12-26T04:29:01.869Z,13.50
2022-12-26T04:30:01.840Z,14.60
2022-12-26T04:31:01.857Z,14.30
2022-12-26T04:32:01.800Z,15.10
2022-12-26T04:33:01.788Z,15.20
2022-12-26T04:34:01.738Z,15.50
2022-12-26T04:35:01.718Z,16.40
2022-12-26T04:36:01.688Z,15.50
2022-12-26T04:37:01.658Z,15.20
2022-12-26T04:38:01.652Z,16.20
2022-12-26T04:39:01.623Z,16.50
2022-12-26T04:40:01.590Z,16.30
2022-12-26T04:41:01.570Z,15.80
2022-12-26T04:42:01.558Z,15.10
2022-12-26T04:43:01.523Z,16.20
2022-12-26T04:44:01.487Z,16.00
2022-12-26T04:45:01.462Z,14.90
2022-12-26T04:46:01.464Z,15.40
2022-12-26T04:47:01.432Z,17.00
2022-12-26T04:48:01.380Z,15.80
2022-12-26T04:49:01.352Z,15.70
2022-12-26T04:50:01.328Z,14.80
2022-12-26T04:51:01.300Z,15.10
2022-12-26T04:52:01.277Z,15.10
2022-12-26T04:53:01.397Z,14.10
2022-12-26T04:54:01.254Z,14.40
2022-12-26T04:55:01.203Z,14.40
2022-12-26T04:56:01.181Z,13.70
2022-12-26T04:57:01.150Z,13.70
2022-12-26T04:58:01.128Z,14.40
2022-12-26T04:59:01.100Z,15.30
2022-12-26T05:00:01.112Z,14.00
2022-12-26T05:01:01.046Z,14.50
2022-12-26T05:02:01.202Z,14.60
2022-12-26T05:03:01.121Z,15.90
2022-12-26T05:04:01.068Z,15.20
2022-12-26T05:05:00.945Z,14.80
2022-12-26T05:06:00.920Z,15.70
2022-12-26T05:07:00.898Z,15.50
2022-12-26T05:08:00.872Z,14.90
2022-12-26T05:09:00.878Z,15.20
2022-12-26T05:10:00.837Z,14.70
2022-12-26T05:11:00.790Z,15.50
2022-12-26T05:12:00.765Z,15.80
2022-12-26T05:13:00.736Z,15.70
2022-12-26T05:14:00.715Z,15.40
2022-12-26T05:15:00.700Z,15.60
2022-12-26T05:16:00.762Z,15.80
2022-12-26T05:17:00.635Z,15.80
2022-12-26T05:18:00.613Z,16.10
2022-12-26T05:19:00.595Z,15.50
2022-12-26T05:20:00.565Z,16.50
2022-12-26T05:21:00.536Z,16.50
2022-12-26T05:22:00.511Z,16.90
2022-12-26T05:23:00.496Z,17.10
2022-12-26T05:24:00.460Z,16.20
2022-12-26T05:25:00.443Z,17.60
2022-12-26T05:26:00.444Z,17.00
2022-12-26T05:27:00.387Z,17.20
2022-12-26T05:28:00.361Z,16.50
2022-12-26T05:29:00.362Z,16.90
2022-12-26T05:30:00.343Z,16.30
2022-12-26T05:31:00.435Z,16.50
2022-12-26T05:32:00.347Z,15.70
2022-12-26T05:33:00.254Z,16.60
2022-12-26T05:34:00.250Z,16.30
2022-12-26T05:35:00.220Z,16.60
2022-12-26T05:36:00.159Z,15.20
2022-12-26T05:37:00.127Z,15.90
2022-12-26T05:38:00.129Z,14.90
2022-12-26T05:39:00.102Z,15.80
2022-12-26T05:40:00.053Z,15.10
2022-12-26T05:41:00.028Z,15.10
2022-12-26T05:42:00.035Z,14.90
2022-12-26T05:42:59.983Z,13.60
2022-12-26T05:43:59.946Z,14.80
2022-12-26T05:44:59.930Z,13.70
2022-12-26T05:45:59.896Z,14.50
2022-12-26T05:46:59.970Z,13.80
2022-12-26T05:47:59.867Z,14.60
2022-12-26T05:48:59.831Z,14.30
2022-12-26T05:49:59.800Z,13.90
2022-12-26T05:50:59.775Z,13.70
2022-12-26T05:51:59.744Z,14.60
2022-12-26T05:52:59.721Z,13.60
2022-12-26T05:53:59.695Z,14.60
2022-12-26T05:54:59.672Z,13.70
2022-12-26T05:55:59.643Z,14.60
2022-12-26T05:56:59.618Z,14.00
2022-12-26T05:57:59.607Z,13.60
2022-12-26T05:58:59.563Z,13.90
2022-12-26T05:59:59.542Z,13.50
2022-12-26T06:00:59.517Z,13.10
2022-12-26T06:01:59.666Z,12.90
2022-12-26T06:02:59.688Z,13.30
2022-12-26T06:03:59.569Z,12.80
2022-12-26T06:04:59.416Z,13.10
2022-12-26T06:05:59.393Z,12.60
2022-12-26T06:06:59.364Z,12.20
2022-12-26T06:07:59.338Z,11.60
2022-12-26T06:08:59.315Z,12.20
2022-12-26T06:09:59.298Z,11.20
2022-12-26T06:10:59.258Z,11.90
2022-12-26T06:11:59.233Z,11.10
2022-12-26T06:12:59.206Z,11.10
2022-12-26T06:13:59.206Z,11.20
2022-12-26T06:14:59.160Z,11.60
2022-12-26T06:15:59.197Z,11.10
2022-12-26T06:16:59.107Z,10.90
2022-12-26T06:17:59.078Z,10.40
2022-12-26T06:18:59.059Z,10.20
2022-12-26T06:19:59.028Z,11.10
2022-12-26T06:20:59.005Z,10.60
2022-12-26T06:21:58.982Z,10.30
2022-12-26T06:22:58.954Z,10.10
2022-12-26T06:23:58.923Z,9.80
2022-12-26T06:24:58.918Z,10.30
2022-12-26T06:25:58.883Z,10.10
2022-12-26T06:26:58.874Z,9.90
2022-12-26T06:27:58.824Z,10.30
2022-12-26T06:28:58.800Z,10.50
2022-12-26T06:29:58.789Z,10.30
2022-12-26T06:30:58.776Z,9.80
2022-12-26T06:31:58.875Z,9.30
2022-12-26T06:32:58.700Z,10.20
2022-12-26T06:33:58.669Z,10.00
2022-12-26T06:34:58.665Z,10.10
2022-12-26T06:35:58.626Z,10.50
2022-12-26T06:36:58.599Z,10.20
2022-12-26T06:37:58.572Z,9.80
2022-12-26T06:38:58.538Z,9.60
2022-12-26T06:39:58.511Z,9.60
2022-12-26T06:40:58.495Z,9.50
2022-12-26T06:41:58.466Z,9.70
2022-12-26T06:42:58.438Z,9.30
2022-12-26T06:43:58.414Z,9.80
2022-12-26T06:44:58.389Z,9.30
2022-12-26T06:45:58.384Z,9.20
2022-12-26T06:46:58.369Z,8.90
2022-12-26T06:47:58.308Z,8.80
2022-12-26T06:48:58.285Z,8.90
2022-12-26T06:49:58.256Z,9.30
2022-12-26T06:50:58.232Z,9.00
2022-12-26T06:51:58.207Z,9.10
2022-12-26T06:52:58.184Z,9.20
2022-12-26T06:53:58.201Z,9.20
2022-12-26T06:54:58.131Z,8.90
2022-12-26T06:55:58.103Z,9.70
2022-12-26T06:56:58.080Z,8.80
2022-12-26T06:57:58.051Z,8.90
2022-12-26T06:58:58.027Z,8.50
2022-12-26T06:59:58.000Z,8.90
2022-12-26T07:00:58.022Z,8.10
2022-12-26T07:01:58.087Z,8.90
2022-12-26T07:02:58.036Z,8.70
2022-12-26T07:03:57.897Z,8.70
2022-12-26T07:04:57.873Z,8.40
2022-12-26T07:05:57.845Z,8.30
2022-12-26T07:06:57.844Z,8.00
2022-12-26T07:07:57.794Z,7.90
2022-12-26T07:08:57.783Z,8.70
2022-12-26T07:09:57.745Z,8.20
2022-12-26T07:10:57.725Z,7.80
2022-12-26T07:11:57.693Z,7.70
2022-12-26T07:12:57.668Z,7.60
2022-12-26T07:13:57.645Z,8.00
2022-12-26T07:15:01.687Z,7.60
2022-12-26T07:15:57.627Z,7.90
2022-12-26T07:16:57.708Z,7.40
2022-12-26T07:17:57.557Z,7.50
2022-12-26T07:18:57.513Z,7.70
2022-12-26T07:19:57.486Z,7.50
2022-12-26T07:20:57.472Z,7.60
2022-12-26T07:21:57.450Z,7.60
2022-12-26T07:22:57.412Z,7.50
2022-12-26T07:23:57.383Z,7.40
2022-12-26T07:24:57.361Z,7.80
2022-12-26T07:25:57.328Z,7.60
2022-12-26T07:26:57.307Z,7.60
2022-12-26T07:27:57.280Z,7.40
2022-12-26T07:28:57.258Z,7.60
2022-12-26T07:29:57.229Z,8.30
2022-12-26T07:30:57.205Z,8.20
2022-12-26T07:31:57.413Z,8.30
2022-12-26T07:32:57.154Z,7.80
2022-12-26T07:33:57.151Z,8.10
2022-12-26T07:34:57.099Z,9.50
2022-12-26T07:35:57.076Z,8.90
2022-12-26T07:36:57.053Z,7.90
2022-12-26T07:37:57.023Z,8.20
2022-12-26T07:38:56.995Z,8.00
2022-12-26T07:39:59.362Z,10.40
2022-12-26T07:40:56.954Z,8.50
2022-12-26T07:41:56.917Z,8.50
2022-12-26T07:42:56.893Z,8.70
2022-12-26T07:43:56.865Z,8.40
2022-12-26T07:44:56.841Z,8.60
2022-12-26T07:45:56.880Z,8.20
2022-12-26T07:46:56.795Z,8.10
2022-12-26T07:47:56.781Z,8.10
2022-12-26T07:48:56.738Z,8.30
2022-12-26T07:49:56.726Z,8.30
2022-12-26T07:50:56.684Z,8.50
2022-12-26T07:51:56.664Z,8.20
2022-12-26T07:52:56.634Z,7.60
2022-12-26T07:53:56.609Z,8.30
2022-12-26T07:54:56.582Z,8.70
2022-12-26T07:55:56.683Z,8.00
2022-12-26T07:57:15.061Z,8.50
2022-12-26T07:57:56.503Z,7.60
2022-12-26T07:58:56.478Z,8.90
2022-12-26T07:59:56.517Z,8.40
2022-12-26T08:00:56.448Z,8.40
2022-12-26T08:01:56.621Z,7.70
2022-12-26T08:03:01.144Z,7.40
2022-12-26T08:03:56.447Z,7.70
2022-12-26T08:04:56.321Z,8.20
2022-12-26T08:05:56.315Z,7.70
2022-12-26T08:06:56.293Z,7.30
2022-12-26T08:07:56.267Z,7.20
2022-12-26T08:08:56.225Z,7.30
2022-12-26T08:09:56.251Z,7.10
2022-12-26T08:10:56.164Z,7.40
2022-12-26T08:11:56.138Z,7.80
2022-12-26T08:12:56.172Z,7.00
2022-12-26T08:13:56.086Z,6.90
2022-12-26T08:14:56.063Z,6.50
2022-12-26T08:15:56.038Z,6.80
2022-12-26T08:16:56.073Z,6.20
2022-12-26T08:17:55.989Z,6.80
2022-12-26T08:18:55.959Z,6.40
2022-12-26T08:19:55.931Z,6.30
2022-12-26T08:20:55.906Z,6.20
2022-12-26T08:21:55.898Z,6.10
2022-12-26T08:23:55.826Z,6.70
2022-12-26T08:24:55.803Z,6.40
2022-12-26T08:25:55.774Z,5.90
2022-12-26T08:26:55.762Z,5.90
2022-12-26T08:27:55.726Z,6.00
2022-12-26T08:28:55.700Z,6.30
2022-12-26T08:29:55.670Z,6.30
2022-12-26T08:30:55.647Z,5.90
2022-12-26T08:31:55.622Z,6.00
2022-12-26T08:32:55.603Z,6.30
2022-12-26T08:33:55.568Z,5.80
2022-12-26T08:34:55.543Z,5.80
2022-12-26T08:35:55.517Z,6.00
2022-12-26T08:36:55.490Z,6.00
2022-12-26T08:37:55.481Z,5.90
2022-12-26T08:38:55.437Z,6.00
2022-12-26T08:39:55.410Z,5.50
2022-12-26T08:40:55.401Z,5.50
2022-12-26T08:41:55.362Z,5.70
2022-12-26T08:43:12.142Z,5.80
2022-12-26T08:44:55.284Z,5.50
2022-12-26T08:45:55.280Z,6.10
2022-12-26T08:46:55.244Z,6.20
2022-12-26T08:47:55.206Z,6.40
2022-12-26T08:48:55.177Z,5.90
2022-12-26T08:49:55.158Z,5.80
2022-12-26T08:50:55.132Z,5.90
2022-12-26T08:51:55.109Z,6.00
2022-12-26T08:52:55.074Z,6.80
2022-12-26T08:53:55.077Z,6.60
2022-12-26T08:54:55.022Z,6.60
2022-12-26T08:55:54.996Z,6.80
2022-12-26T08:56:54.989Z,8.40
2022-12-26T08:57:54.947Z,7.50
2022-12-26T08:58:54.916Z,7.20
2022-12-26T08:59:54.896Z,7.70
2022-12-26T09:00:55.567Z,7.00
2022-12-26T09:01:54.929Z,6.90
2022-12-26T09:02:55.045Z,7.00
2022-12-26T09:03:54.787Z,6.70
2022-12-26T09:04:54.768Z,7.70
2022-12-26T09:05:54.736Z,7.30
2022-12-26T09:06:54.714Z,7.60
2022-12-26T09:07:54.692Z,6.80
2022-12-26T09:08:54.677Z,6.40
2022-12-26T09:09:54.653Z,6.50
2022-12-26T09:10:54.610Z,6.50
2022-12-26T09:11:54.584Z,5.70
2022-12-26T09:12:54.561Z,5.80
2022-12-26T09:13:54.530Z,5.90
2022-12-26T09:14:54.504Z,6.00
2022-12-26T09:15:54.477Z,5.50
2022-12-26T09:16:54.577Z,5.70
2022-12-26T09:17:54.425Z,5.50
2022-12-26T09:18:54.405Z,4.90
2022-12-26T09:19:54.375Z,4.80
2022-12-26T09:20:54.348Z,4.90
2022-12-26T09:21:54.318Z,5.10
2022-12-26T09:22:54.315Z,4.60
2022-12-26T09:23:54.271Z,5.60
2022-12-26T09:24:54.244Z,5.40
2022-12-26T09:25:54.236Z,5.50
2022-12-26T09:26:54.196Z,5.30
2022-12-26T09:27:58.863Z,5.50
2022-12-26T09:28:54.142Z,4.90
2022-12-26T09:29:54.116Z,4.70
2022-12-26T09:30:54.145Z,4.50
2022-12-26T09:31:54.072Z,4.60
2022-12-26T09:32:54.065Z,4.80
2022-12-26T09:33:54.013Z,4.50
2022-12-26T09:34:53.985Z,4.20
2022-12-26T09:35:57.055Z,4.50
2022-12-26T09:36:53.938Z,4.70
2022-12-26T09:37:53.909Z,4.30
2022-12-26T09:38:53.880Z,4.40
2022-12-26T09:39:53.857Z,4.00
2022-12-26T09:40:53.836Z,4.60
2022-12-26T09:41:53.823Z,4.40
2022-12-26T09:42:53.787Z,4.20
2022-12-26T09:43:53.763Z,4.10
2022-12-26T09:44:53.730Z,4.10
2022-12-26T09:45:53.739Z,4.00
2022-12-26T09:46:53.676Z,4.60
2022-12-26T09:47:53.649Z,5.30
2022-12-26T09:48:53.626Z,4.90
2022-12-26T09:49:53.604Z,6.10
2022-12-26T09:50:53.572Z,5.20
2022-12-26T09:51:53.549Z,5.70
2022-12-26T09:52:53.519Z,5.30
2022-12-26T09:53:53.497Z,5.00
2022-12-26T09:54:53.476Z,4.30
2022-12-26T09:55:53.447Z,4.70
2022-12-26T09:57:02.355Z,4.50
2022-12-26T09:57:53.434Z,4.00
2022-12-26T09:58:53.374Z,4.60
2022-12-26T09:59:53.359Z,5.50
2022-12-26T10:00:53.331Z,5.60
2022-12-26T10:01:53.374Z,5.90
2022-12-26T10:02:53.266Z,5.30
2022-12-26T10:03:53.242Z,4.70
2022-12-26T10:04:53.388Z,4.10
2022-12-26T10:05:53.196Z,4.70
2022-12-26T10:06:53.163Z,4.40
2022-12-26T10:07:53.145Z,4.20
2022-12-26T10:08:53.114Z,4.20
2022-12-26T10:09:53.088Z,4.50
2022-12-26T10:10:53.064Z,4.00
2022-12-26T10:11:53.038Z,3.90
2022-12-26T10:12:53.022Z,3.60
2022-12-26T10:13:53.011Z,3.40
2022-12-26T10:14:52.968Z,3.70
2022-12-26T10:15:52.973Z,3.90
2022-12-26T10:16:52.924Z,4.10
2022-12-26T10:17:52.888Z,4.10
2022-12-26T10:18:52.881Z,3.90
2022-12-26T10:19:52.837Z,4.80
2022-12-26T10:20:52.813Z,4.20
2022-12-26T10:21:52.785Z,3.40
2022-12-26T10:22:52.755Z,4.10
2022-12-26T10:23:52.734Z,3.30
2022-12-26T10:24:52.712Z,3.50
2022-12-26T10:25:52.683Z,3.30
2022-12-26T10:26:52.663Z,3.40
2022-12-26T10:27:52.633Z,3.90
2022-12-26T10:28:52.606Z,3.30
2022-12-26T10:29:52.606Z,3.70
2022-12-26T10:30:52.595Z,3.60
2022-12-26T10:31:52.543Z,3.40
2022-12-26T10:32:52.515Z,3.10
2022-12-26T10:33:52.478Z,3.40
2022-12-26T10:34:52.452Z,3.30
2022-12-26T10:35:52.427Z,3.20
2022-12-26T10:36:52.401Z,3.10
2022-12-26T10:37:52.377Z,3.10
2022-12-26T10:38:52.351Z,3.20
2022-12-26T10:39:52.329Z,3.10
2022-12-26T10:40:52.307Z,2.80
2022-12-26T10:41:52.280Z,3.20
2022-12-26T10:42:52.248Z,3.20
2022-12-26T10:43:52.225Z,3.10
2022-12-26T10:44:52.196Z,2.90
2022-12-26T10:45:52.300Z,2.80
2022-12-26T10:46:52.186Z,2.90
2022-12-26T10:47:52.125Z,3.10
2022-12-26T10:48:52.101Z,3.30
2022-12-26T10:49:52.072Z,2.90
2022-12-26T10:50:52.049Z,2.80
2022-12-26T10:51:52.019Z,3.00
2022-12-26T10:52:51.997Z,3.60
2022-12-26T10:53:51.964Z,3.20
2022-12-26T10:54:51.939Z,3.40
2022-12-26T10:55:51.917Z,2.90
2022-12-26T10:56:51.902Z,3.10
2022-12-26T10:57:51.875Z,3.20
2022-12-26T10:58:51.928Z,2.80
2022-12-26T10:59:51.862Z,2.70
2022-12-26T11:00:51.793Z,3.00
2022-12-26T11:01:51.887Z,2.90
2022-12-26T11:02:51.893Z,2.60
2022-12-26T11:03:51.825Z,3.00
2022-12-26T11:05:15.560Z,2.90
2022-12-26T11:06:08.397Z,3.00
2022-12-26T11:06:51.636Z,2.40
2022-12-26T11:07:51.623Z,2.80
2022-12-26T11:08:51.622Z,2.90
2022-12-26T11:09:51.572Z,2.60
2022-12-26T11:10:51.539Z,2.50
2022-12-26T11:11:51.511Z,2.90
2022-12-26T11:12:51.497Z,2.90
2022-12-26T11:13:51.458Z,2.50
2022-12-26T11:14:51.432Z,2.30
2022-12-26T11:15:51.543Z,2.60
2022-12-26T11:16:51.381Z,2.80
2022-12-26T11:17:51.372Z,2.50
2022-12-26T11:18:51.421Z,2.80
2022-12-26T11:19:51.309Z,2.70
2022-12-26T11:20:51.276Z,2.60
2022-12-26T11:21:51.256Z,2.40
2022-12-26T11:22:51.226Z,2.80
2022-12-26T11:23:51.207Z,3.10
2022-12-26T11:24:51.179Z,2.70
2022-12-26T11:25:51.156Z,2.50
2022-12-26T11:26:51.129Z,2.50
2022-12-26T11:27:51.103Z,2.40
2022-12-26T11:28:51.076Z,2.30
2022-12-26T11:29:51.053Z,2.80
2022-12-26T11:30:51.031Z,2.60
2022-12-26T11:31:51.011Z,2.60
2022-12-26T11:32:50.977Z,2.30
2022-12-26T11:33:50.973Z,2.80
2022-12-26T11:34:50.926Z,2.60
2022-12-26T11:35:50.901Z,2.60
2022-12-26T11:36:50.874Z,2.30
2022-12-26T11:37:50.849Z,2.40
2022-12-26T11:38:50.821Z,2.70
2022-12-26T11:39:50.799Z,2.70
2022-12-26T11:40:50.772Z,2.30
2022-12-26T11:41:50.746Z,2.50
2022-12-26T11:42:50.721Z,2.60
2022-12-26T11:43:50.696Z,2.90
2022-12-26T11:44:50.671Z,2.40
2022-12-26T11:45:50.660Z,2.90
2022-12-26T11:46:50.641Z,2.50
2022-12-26T11:47:50.604Z,2.50
2022-12-26T11:48:50.593Z,2.70
2022-12-26T11:49:50.578Z,3.30
2022-12-26T11:50:50.571Z,2.40
2022-12-26T11:51:54.177Z,2.40
2022-12-26T11:52:50.467Z,2.70
2022-12-26T11:53:50.437Z,2.40
2022-12-26T11:54:50.420Z,2.60
2022-12-26T11:55:50.390Z,2.70
2022-12-26T11:56:50.363Z,3.50
2022-12-26T11:57:53.977Z,2.80
2022-12-26T11:58:50.311Z,2.70
2022-12-26T11:59:50.288Z,2.50
2022-12-26T12:00:50.263Z,2.70
2022-12-26T12:01:50.377Z,2.60
2022-12-26T12:02:50.364Z,2.90
2022-12-26T12:03:50.566Z,3.00
2022-12-26T12:04:50.158Z,2.30
2022-12-26T12:05:50.170Z,2.70
2022-12-26T12:06:50.104Z,3.50
2022-12-26T12:07:50.082Z,3.00
2022-12-26T12:08:50.051Z,3.00
2022-12-26T12:09:50.037Z,3.90
2022-12-26T12:10:50.003Z,2.90
2022-12-26T12:11:49.975Z,2.70
2022-12-26T12:12:49.956Z,3.10
2022-12-26T12:13:49.927Z,3.30
2022-12-26T12:14:54.518Z,3.30
2022-12-26T12:15:49.875Z,3.10
2022-12-26T12:16:49.913Z,2.90
2022-12-26T12:17:49.821Z,3.00
2022-12-26T12:18:49.806Z,3.20
2022-12-26T12:19:49.769Z,3.10
2022-12-26T12:20:52.003Z,3.20
2022-12-26T12:21:49.749Z,3.30
2022-12-26T12:22:49.691Z,3.10
2022-12-26T12:23:49.664Z,3.30
2022-12-26T12:24:49.638Z,3.80
2022-12-26T12:25:49.613Z,3.10
2022-12-26T12:26:55.624Z,2.90
2022-12-26T12:27:49.580Z,3.20
2022-12-26T12:28:49.535Z,3.30
2022-12-26T12:29:49.506Z,2.80
2022-12-26T12:30:49.482Z,3.00
2022-12-26T12:31:49.528Z,2.90
2022-12-26T12:32:55.223Z,3.20
2022-12-26T12:33:49.399Z,3.00
2022-12-26T12:34:49.374Z,3.20
2022-12-26T12:35:49.348Z,2.70
2022-12-26T12:36:49.323Z,3.00
2022-12-26T12:37:49.318Z,2.60
2022-12-26T12:38:54.704Z,2.90
2022-12-26T12:39:49.245Z,2.30
2022-12-26T12:40:49.230Z,2.80
2022-12-26T12:41:49.185Z,2.40
2022-12-26T12:42:49.157Z,1.90
2022-12-26T12:43:49.139Z,2.00
2022-12-26T12:44:52.711Z,2.20
2022-12-26T12:45:49.150Z,1.80
2022-12-26T12:46:49.051Z,1.90
2022-12-26T12:47:49.048Z,2.00
2022-12-26T12:48:49.002Z,1.90
2022-12-26T12:49:48.980Z,1.70
2022-12-26T12:50:54.656Z,2.20
2022-12-26T12:51:48.919Z,1.90
2022-12-26T12:52:48.885Z,2.50
2022-12-26T12:53:48.903Z,2.20
2022-12-26T12:54:48.834Z,2.10
2022-12-26T12:55:48.809Z,2.00
2022-12-26T12:56:48.778Z,1.90
2022-12-26T12:57:48.751Z,2.00
2022-12-26T12:58:48.723Z,2.10
2022-12-26T12:59:48.700Z,1.70
2022-12-26T13:00:48.707Z,1.90
2022-12-26T13:01:48.742Z,2.10
2022-12-26T13:02:48.702Z,1.80
2022-12-26T13:03:48.592Z,2.20
2022-12-26T13:04:48.563Z,2.20
2022-12-26T13:05:48.537Z,2.20
2022-12-26T13:06:48.527Z,2.10